Time;durP1;ratioP1;P1;durP2;ratioP2;P2;SDS_P1;SDS_P2;PMS_P1;PMS_P2;Temp;Humidity;BMP_temperature;BMP_pressure;BME280_temperature;BME280_humidity;BME280_pressure;Samples;Min_cycle;Max_cycle;Signal;HPM_P1;HPM_P2
2022/08/29 00:01:28;;;;;;;2.92;0.77;;;17.00;99.70;;;;;;6258423;22;20015;-93
2022/08/29 00:04:21;;;;;;;3.05;0.90;;;17.00;99.80;;;;;;6257379;22;20106;-96
2022/08/29 00:07:20;;;;;;;1.90;0.73;;;17.00;99.90;;;;;;6263750;22;20020;-91
2022/08/29 00:09:46;;;;;;;2.55;0.80;;;17.00;99.90;;;;;;6259650;22;20073;-96
2022/08/29 00:12:12;;;;;;;2.40;0.90;;;17.00;99.90;;;;;;6260291;22;20337;-89
2022/08/29 00:14:37;;;;;;;5.57;0.93;;;17.00;99.90;;;;;;6233607;22;20023;-95
2022/08/29 00:17:03;;;;;;;2.45;0.73;;;17.00;99.90;;;;;;6207010;22;20019;-91
2022/08/29 00:19:29;;;;;;;3.08;0.90;;;17.10;99.90;;;;;;6231740;22;20098;-93
2022/08/29 00:21:55;;;;;;;4.55;0.82;;;17.00;99.90;;;;;;6211887;22;20057;-92
2022/08/29 00:24:21;;;;;;;3.38;1.17;;;17.10;99.90;;;;;;6238685;22;20050;-92
2022/08/29 00:26:46;;;;;;;3.33;0.85;;;17.10;99.90;;;;;;6264715;22;20098;-95
2022/08/29 00:29:12;;;;;;;2.65;0.68;;;17.00;99.90;;;;;;6235072;22;20015;-89
2022/08/29 00:31:38;;;;;;;2.95;0.90;;;17.10;99.90;;;;;;6207930;22;20030;-93
2022/08/29 00:34:03;;;;;;;3.17;0.77;;;17.10;99.90;;;;;;6261735;22;20031;-91
2022/08/29 00:36:30;;;;;;;2.58;0.75;;;17.10;99.90;;;;;;6284622;22;20019;-88
2022/08/29 00:38:55;;;;;;;3.28;0.73;;;17.10;99.90;;;;;;6256231;22;20101;-89
2022/08/29 00:41:21;;;;;;;2.08;0.60;;;17.10;99.90;;;;;;6256283;22;20026;-95
2022/08/29 00:43:47;;;;;;;2.00;0.77;;;17.10;99.90;;;;;;6205551;22;20055;-88
2022/08/29 00:46:40;;;;;;;2.00;0.70;;;17.10;99.90;;;;;;6231218;22;20016;-91
2022/08/29 00:49:17;;;;;;;2.45;0.50;;;17.10;99.90;;;;;;6281759;22;20026;-88
2022/08/29 00:51:44;;;;;;;2.78;0.82;;;17.10;99.90;;;;;;6282099;22;20019;-91
2022/08/29 00:54:12;;;;;;;1.73;0.47;;;17.10;99.90;;;;;;6256692;22;20101;-89
2022/08/29 00:56:40;;;;;;;2.38;0.50;;;17.10;99.90;;;;;;6261434;22;20011;-90
2022/08/29 00:59:19;;;;;;;3.22;0.70;;;17.10;99.90;;;;;;6235359;22;20548;-91
2022/08/29 01:01:45;;;;;;;1.30;0.50;;;17.10;99.90;;;;;;6261864;22;20020;-89
2022/08/29 01:04:14;;;;;;;1.85;0.70;;;17.20;99.90;;;;;;6317010;22;20023;-90
2022/08/29 01:06:40;;;;;;;2.58;0.50;;;17.20;99.90;;;;;;6260606;22;20015;-90
2022/08/29 01:09:07;;;;;;;;;;;17.20;99.90;;;;;;6265115;22;20020;-91
2022/08/29 01:14:20;;;;;;;2.40;0.50;;;17.20;99.90;;;;;;6298319;22;20020;-89
2022/08/29 01:16:47;;;;;;;2.45;0.50;;;17.20;99.90;;;;;;6236709;22;20467;-92
2022/08/29 01:19:44;;;;;;;3.03;0.55;;;17.20;99.90;;;;;;6285790;22;20015;-96
2022/08/29 01:22:39;;;;;;;1.30;0.50;;;17.20;99.90;;;;;;6288962;22;20070;-93
2022/08/29 01:25:27;;;;;;;2.75;0.80;;;17.20;99.90;;;;;;6296130;22;20237;-90
2022/08/29 01:28:22;;;;;;;2.92;0.60;;;17.20;99.90;;;;;;6261387;22;20023;-90
2022/08/29 01:31:09;;;;;;;4.03;0.68;;;17.30;99.90;;;;;;6287765;22;20019;-92
2022/08/29 01:33:45;;;;;;;2.00;0.77;;;17.30;99.90;;;;;;6265629;22;20023;-92
2022/08/29 01:36:19;;;;;;;2.50;0.60;;;17.30;99.90;;;;;;6267459;22;20019;-93
2022/08/29 01:38:46;;;;;;;5.20;0.85;;;17.20;99.90;;;;;;6290991;22;20647;-90
2022/08/29 01:41:16;;;;;;;2.20;0.57;;;17.20;99.90;;;;;;6289858;22;20026;-89
2022/08/29 01:43:48;;;;;;;2.13;0.70;;;17.20;99.90;;;;;;6263533;22;20026;-91
2022/08/29 01:46:18;;;;;;;2.45;0.75;;;17.20;99.90;;;;;;6261085;22;20026;-93
2022/08/29 01:48:45;;;;;;;4.13;0.68;;;17.20;99.90;;;;;;6285201;22;20645;-89
2022/08/29 01:51:13;;;;;;;1.63;0.50;;;17.20;99.90;;;;;;6288072;22;20023;-89
2022/08/29 01:53:39;;;;;;;2.90;0.98;;;17.30;99.90;;;;;;6261280;22;20019;-90
2022/08/29 01:56:18;;;;;;;2.40;0.57;;;17.20;99.90;;;;;;6265696;22;20479;-90
2022/08/29 01:58:46;;;;;;;2.85;0.80;;;17.30;99.90;;;;;;6264323;22;20329;-90
2022/08/29 02:01:15;;;;;;;3.40;0.77;;;17.30;99.90;;;;;;6265398;22;20019;-90
2022/08/29 02:08:54;;;;;;;3.97;0.90;;;17.20;99.90;;;;;;6315928;22;20019;-87
2022/08/29 02:11:22;;;;;;;3.00;0.60;;;17.30;99.90;;;;;;6263261;22;20019;-86
2022/08/29 02:14:03;;;;;;;1.52;0.60;;;17.30;99.90;;;;;;6290034;22;20081;-86
2022/08/29 02:16:30;;;;;;;3.83;1.00;;;17.30;99.90;;;;;;6262555;22;20058;-86
2022/08/29 02:18:57;;;;;;;2.45;0.70;;;17.30;99.90;;;;;;6283540;22;20033;-96
2022/08/29 02:21:25;;;;;;;1.88;0.70;;;17.30;99.90;;;;;;6256830;22;20084;-93
2022/08/29 02:23:51;;;;;;;1.48;0.57;;;17.20;99.90;;;;;;6256617;22;20457;-88
2022/08/29 02:26:19;;;;;;;3.35;0.60;;;17.30;99.90;;;;;;6258634;22;20070;-89
2022/08/29 02:28:46;;;;;;;2.20;0.52;;;17.20;99.90;;;;;;6264578;22;20119;-87
2022/08/29 02:31:14;;;;;;;2.65;0.75;;;17.20;99.90;;;;;;6265474;22;20543;-87
2022/08/29 02:33:40;;;;;;;1.75;0.70;;;17.20;99.90;;;;;;6255516;22;20077;-90
2022/08/29 02:36:07;;;;;;;2.40;0.68;;;17.20;99.90;;;;;;6256191;22;20011;-91
2022/08/29 02:38:35;;;;;;;;;;;17.20;99.90;;;;;;6261123;22;20030;-92
2022/08/29 02:41:04;;;;;;;2.40;0.60;;;17.20;99.90;;;;;;6290802;22;20007;-89
2022/08/29 02:43:30;;;;;;;6.35;0.93;;;17.20;99.90;;;;;;6262226;22;20015;-94
2022/08/29 02:45:56;;;;;;;3.92;0.77;;;17.20;99.90;;;;;;6256555;22;20027;-92
2022/08/29 02:48:23;;;;;;;1.98;0.70;;;17.20;99.90;;;;;;6282620;22;20452;-95
2022/08/29 02:50:52;;;;;;;3.00;0.50;;;17.20;99.90;;;;;;6257491;22;20436;-88
2022/08/29 02:53:21;;;;;;;4.07;0.80;;;17.20;99.90;;;;;;6256842;22;20104;-89
2022/08/29 02:55:48;;;;;;;2.85;0.80;;;17.20;99.90;;;;;;6257267;22;20019;-94
2022/08/29 02:58:14;;;;;;;4.20;1.00;;;17.20;99.90;;;;;;6257792;22;20020;-89
2022/08/29 03:00:41;;;;;;;3.38;0.88;;;17.10;99.90;;;;;;6257716;22;20351;-88
2022/08/29 03:03:06;;;;;;;;;;;17.20;99.90;;;;;;6258557;22;20348;-89
2022/08/29 03:05:35;;;;;;;2.42;0.90;;;17.20;99.90;;;;;;6260793;22;19925;-91
2022/08/29 03:08:09;;;;;;;2.65;0.80;;;17.10;99.90;;;;;;6288352;22;20038;-91
2022/08/29 03:13:24;;;;;;;2.53;0.88;;;17.10;99.90;;;;;;6300833;22;20023;-87
2022/08/29 03:16:03;;;;;;;3.10;0.80;;;17.10;99.90;;;;;;6264426;22;20020;-90
2022/08/29 03:18:32;;;;;;;2.80;1.35;;;17.10;99.90;;;;;;6258073;22;20027;-90
2022/08/29 03:20:58;;;;;;;4.93;1.20;;;17.00;99.90;;;;;;6232778;22;20019;-90
2022/08/29 03:23:24;;;;;;;2.60;0.90;;;17.00;99.90;;;;;;6258749;22;20027;-90
2022/08/29 03:25:50;;;;;;;4.07;0.88;;;17.10;99.90;;;;;;6258065;22;20376;-90
2022/08/29 03:28:16;;;;;;;1.60;0.80;;;17.00;99.90;;;;;;6284213;22;20019;-90
2022/08/29 03:30:42;;;;;;;3.35;0.85;;;17.00;99.90;;;;;;6238584;22;20019;-87
2022/08/29 03:33:07;;;;;;;2.75;0.80;;;17.00;99.90;;;;;;6258869;22;20025;-88
2022/08/29 03:35:33;;;;;;;2.35;0.90;;;17.00;99.90;;;;;;6258048;22;20019;-92
2022/08/29 03:37:59;;;;;;;3.20;1.08;;;17.00;99.90;;;;;;6257225;22;20022;-94
2022/08/29 03:40:25;;;;;;;3.97;0.80;;;17.00;99.90;;;;;;6257096;22;20019;-88
2022/08/29 03:42:51;;;;;;;4.72;1.25;;;17.00;99.90;;;;;;6257724;22;20019;-89
2022/08/29 03:45:18;;;;;;;2.10;0.98;;;17.00;99.90;;;;;;6232484;22;20015;-91
2022/08/29 03:47:45;;;;;;;1.98;0.57;;;17.00;99.90;;;;;;6263377;22;20452;-88
2022/08/29 03:50:13;;;;;;;1.92;0.68;;;17.00;99.90;;;;;;6261853;22;20021;-90
2022/08/29 03:52:42;;;;;;;1.52;0.60;;;17.00;99.90;;;;;;6235792;22;20030;-90
2022/08/29 03:55:09;;;;;;;2.75;0.70;;;17.00;99.90;;;;;;6262106;22;20056;-91
2022/08/29 03:57:34;;;;;;;2.83;0.80;;;16.90;99.90;;;;;;6269304;22;20011;-86
2022/08/29 04:00:09;;;;;;;2.30;0.77;;;17.00;99.90;;;;;;6233122;22;20014;-89
2022/08/29 04:02:35;;;;;;;2.45;0.90;;;16.90;99.90;;;;;;6272208;22;20015;-89
2022/08/29 04:05:07;;;;;;;2.33;1.02;;;16.90;99.90;;;;;;6285697;22;20523;-88
2022/08/29 04:07:48;;;;;;;2.75;0.70;;;16.90;99.90;;;;;;6266943;22;20379;-86
2022/08/29 04:10:33;;;;;;;2.83;0.77;;;17.00;99.90;;;;;;6291296;22;20344;-89
2022/08/29 04:12:59;;;;;;;1.88;0.90;;;16.90;99.90;;;;;;6282166;22;20029;-88
2022/08/29 04:15:27;;;;;;;4.45;2.08;;;17.00;99.90;;;;;;6256843;22;20019;-89
2022/08/29 04:17:55;;;;;;;1.20;0.75;;;16.90;99.90;;;;;;6256811;22;20395;-90
2022/08/29 04:20:23;;;;;;;3.13;0.80;;;16.90;99.90;;;;;;6256672;22;20030;-90
2022/08/29 04:22:49;;;;;;;2.25;0.60;;;16.90;99.90;;;;;;6234198;22;20026;-87
2022/08/29 04:25:16;;;;;;;3.90;1.65;;;17.00;99.90;;;;;;6264995;22;20023;-87
2022/08/29 04:27:43;;;;;;;1.38;0.70;;;17.00;99.90;;;;;;6265283;22;20019;-88
2022/08/29 04:30:13;;;;;;;1.80;0.77;;;17.00;99.90;;;;;;6237266;22;20098;-89
2022/08/29 04:32:39;;;;;;;1.52;0.68;;;17.00;99.90;;;;;;6257792;22;20015;-94
2022/08/29 04:35:06;;;;;;;2.15;0.63;;;16.90;99.90;;;;;;6241313;22;20018;-87
2022/08/29 04:37:32;;;;;;;1.38;0.57;;;16.90;99.90;;;;;;6272663;22;20027;-88
2022/08/29 04:39:58;;;;;;;2.83;1.15;;;16.90;99.90;;;;;;6294811;22;20082;-87
2022/08/29 04:42:24;;;;;;;;;;;16.90;99.90;;;;;;6269625;22;20016;-88
2022/08/29 04:44:54;;;;;;;2.90;0.90;;;16.90;99.90;;;;;;6293683;22;19921;-90
2022/08/29 04:47:21;;;;;;;3.42;0.70;;;16.90;99.90;;;;;;6296235;22;20019;-91
2022/08/29 04:52:28;;;;;;;2.92;1.00;;;16.90;99.90;;;;;;6312367;22;20053;-87
2022/08/29 04:54:55;;;;;;;2.40;0.98;;;16.90;99.90;;;;;;6291296;22;20019;-88
2022/08/29 04:57:22;;;;;;;4.63;1.05;;;17.00;99.90;;;;;;6294699;22;20344;-92
2022/08/29 04:59:54;;;;;;;2.85;0.90;;;17.00;99.90;;;;;;6295191;22;20019;-86
2022/08/29 05:02:21;;;;;;;2.28;0.90;;;17.00;99.90;;;;;;6241838;22;20019;-95
2022/08/29 05:04:51;;;;;;;2.85;0.88;;;17.00;99.90;;;;;;6261956;22;20023;-91
2022/08/29 05:07:21;;;;;;;2.92;0.88;;;17.00;99.90;;;;;;6260290;22;20053;-88
2022/08/29 05:09:49;;;;;;;1.88;0.68;;;17.00;99.90;;;;;;6257914;22;20019;-95
2022/08/29 05:12:15;;;;;;;2.55;0.82;;;17.10;99.90;;;;;;6257826;22;20483;-93
2022/08/29 05:14:41;;;;;;;2.28;0.95;;;17.10;99.90;;;;;;6258628;22;20019;-90
2022/08/29 05:17:06;;;;;;;3.47;0.80;;;17.10;99.90;;;;;;6234575;22;20050;-95
2022/08/29 05:19:32;;;;;;;2.65;0.80;;;17.10;99.90;;;;;;6283149;22;20448;-90
2022/08/29 05:21:58;;;;;;;2.67;1.02;;;17.10;99.90;;;;;;6237179;22;20040;-89
2022/08/29 05:24:24;;;;;;;1.65;0.60;;;17.10;99.90;;;;;;6281517;22;20030;-88
2022/08/29 05:26:51;;;;;;;1.98;0.70;;;17.10;99.90;;;;;;6256969;22;20019;-94
2022/08/29 05:29:17;;;;;;;;;;;17.20;99.90;;;;;;6282217;22;20456;-94
2022/08/29 05:31:42;;;;;;;2.75;0.90;;;17.20;99.90;;;;;;6255890;22;20334;-94
2022/08/29 05:34:10;;;;;;;3.13;0.80;;;17.20;99.90;;;;;;6281514;22;20098;-94
2022/08/29 05:36:35;;;;;;;2.90;0.80;;;17.20;99.90;;;;;;6256014;22;20452;-89
2022/08/29 05:39:02;;;;;;;2.70;0.95;;;17.20;99.90;;;;;;6256371;22;20022;-94
2022/08/29 05:41:28;;;;;;;1.55;0.70;;;17.20;99.90;;;;;;6205918;22;20023;-91
2022/08/29 05:43:55;;;;;;;1.83;0.70;;;17.20;99.90;;;;;;6255739;22;20026;-91
2022/08/29 05:46:21;;;;;;;2.30;0.70;;;17.20;99.90;;;;;;6231055;22;20448;-92
2022/08/29 05:48:47;;;;;;;1.25;0.47;;;17.30;99.90;;;;;;6255933;22;20027;-91
2022/08/29 05:51:18;;;;;;;1.88;0.73;;;17.30;99.90;;;;;;6255105;22;20023;-95
2022/08/29 05:53:44;;;;;;;3.22;0.93;;;17.30;99.90;;;;;;6254946;22;20023;-94
2022/08/29 05:56:11;;;;;;;5.00;1.13;;;17.30;99.90;;;;;;6255961;22;20015;-92
2022/08/29 05:58:37;;;;;;;2.75;0.85;;;17.30;99.90;;;;;;6255844;22;20025;-93
2022/08/29 06:01:03;;;;;;;2.47;1.00;;;17.40;99.90;;;;;;6281587;22;20026;-92
2022/08/29 06:03:29;;;;;;;2.05;0.80;;;17.40;99.90;;;;;;6255813;22;20019;-95
2022/08/29 06:05:55;;;;;;;2.78;1.15;;;17.40;99.90;;;;;;6289323;22;20023;-94
2022/08/29 06:08:21;;;;;;;3.15;1.38;;;17.40;99.90;;;;;;6260284;22;20055;-92
2022/08/29 06:10:47;;;;;;;2.58;1.00;;;17.40;99.90;;;;;;6255665;22;20020;-92
2022/08/29 06:13:58;;;;;;;2.03;0.75;;;17.40;99.90;;;;;;6230734;22;20023;-95
2022/08/29 06:16:35;;;;;;;2.92;0.80;;;17.50;99.90;;;;;;6238216;22;20455;-94
2022/08/29 06:19:25;;;;;;;3.38;1.10;;;17.50;99.90;;;;;;6236659;22;20026;-96
2022/08/29 06:21:54;;;;;;;2.95;1.30;;;17.50;99.90;;;;;;6228576;22;20473;-95
2022/08/29 06:24:40;;;;;;;3.70;1.00;;;17.60;99.90;;;;;;6285540;22;20061;-95
2022/08/29 06:27:06;;;;;;;5.10;1.17;;;17.70;99.90;;;;;;6256802;22;20019;-96
2022/08/29 06:29:32;;;;;;;4.57;1.00;;;17.80;99.90;;;;;;6263524;22;20105;-96
2022/08/29 06:32:35;;;;;;;2.90;1.20;;;17.90;99.90;;;;;;6258607;22;20023;-96
2022/08/29 06:35:00;;;;;;;3.50;1.40;;;17.90;99.90;;;;;;6253981;22;20019;-93
2022/08/29 06:37:26;;;;;;;4.85;1.15;;;18.00;99.90;;;;;;6228583;22;20024;-90
2022/08/29 06:39:52;;;;;;;2.35;1.00;;;18.20;99.90;;;;;;6230037;22;20027;-91
2022/08/29 06:42:21;;;;;;;3.72;1.50;;;18.40;99.90;;;;;;6256511;22;20059;-94
2022/08/29 06:44:47;;;;;;;2.38;0.95;;;18.60;99.90;;;;;;6264706;22;20027;-89
2022/08/29 06:47:13;;;;;;;3.10;1.08;;;18.70;99.90;;;;;;6308746;22;20007;-89
2022/08/29 06:49:39;;;;;;;3.42;1.23;;;18.80;99.90;;;;;;6291557;22;20026;-92
2022/08/29 06:52:05;;;;;;;5.22;1.45;;;18.80;99.90;;;;;;6257145;22;20446;-89
2022/08/29 06:54:31;;;;;;;4.47;1.20;;;18.90;99.90;;;;;;6282597;22;20023;-92
2022/08/29 06:56:58;;;;;;;4.35;0.90;;;18.90;99.90;;;;;;6255990;22;20019;-96
2022/08/29 06:59:25;;;;;;;2.35;0.95;;;18.90;99.90;;;;;;6309619;22;20019;-89
2022/08/29 07:01:54;;;;;;;3.90;1.75;;;18.90;99.90;;;;;;6288355;22;20023;-88
2022/08/29 07:04:20;;;;;;;4.90;0.90;;;18.90;99.90;;;;;;6261153;22;20019;-96
2022/08/29 07:06:45;;;;;;;4.85;0.80;;;18.90;99.90;;;;;;6258189;22;20027;-95
2022/08/29 07:09:12;;;;;;;3.33;0.80;;;19.00;99.90;;;;;;6310733;22;20023;-89
2022/08/29 07:11:42;;;;;;;3.03;0.90;;;19.00;99.90;;;;;;6257139;22;20008;-89
2022/08/29 07:14:08;;;;;;;2.65;1.08;;;19.10;99.90;;;;;;6258211;22;20020;-95
2022/08/29 07:16:35;;;;;;;4.38;0.98;;;19.10;99.90;;;;;;6259550;22;20019;-90
2022/08/29 07:19:02;;;;;;;4.60;1.20;;;19.10;99.90;;;;;;6309260;22;20402;-92
2022/08/29 07:21:28;;;;;;;4.40;1.35;;;19.10;99.90;;;;;;6296208;22;20027;-89
2022/08/29 07:23:56;;;;;;;3.35;1.23;;;19.00;99.90;;;;;;6278377;22;20423;-89
2022/08/29 07:26:40;;;;;;;4.60;1.20;;;19.00;99.90;;;;;;6265323;22;20019;-92
2022/08/29 07:29:10;;;;;;;2.53;0.90;;;18.90;99.90;;;;;;6284715;22;20028;-88
2022/08/29 07:31:37;;;;;;;7.15;1.40;;;18.90;99.90;;;;;;6257862;22;20019;-90
2022/08/29 07:34:04;;;;;;;3.35;1.35;;;18.90;99.90;;;;;;6285870;22;20098;-91
2022/08/29 07:36:30;;;;;;;;;;;18.90;99.90;;;;;;6261172;22;20094;-88
2022/08/29 07:38:56;;;;;;;3.90;1.25;;;18.90;99.90;;;;;;6312629;22;19945;-89
2022/08/29 07:41:23;;;;;;;4.53;1.25;;;18.90;99.90;;;;;;6258992;22;20019;-93
2022/08/29 07:43:49;;;;;;;4.07;1.20;;;18.90;99.90;;;;;;6284499;22;20069;-91
2022/08/29 07:46:19;;;;;;;5.30;1.33;;;18.90;99.90;;;;;;6287037;22;20019;-92
2022/08/29 07:48:46;;;;;;;4.10;1.30;;;18.90;99.90;;;;;;6283633;22;20023;-89
2022/08/29 07:51:15;;;;;;;5.50;1.30;;;19.00;99.90;;;;;;6313481;22;20019;-96
2022/08/29 07:53:41;;;;;;;5.85;1.55;;;19.00;99.90;;;;;;6313068;22;20023;-93
2022/08/29 07:56:13;;;;;;;5.07;1.10;;;19.00;99.90;;;;;;6288647;22;20062;-91
2022/08/29 07:58:40;;;;;;;3.92;1.27;;;19.00;99.90;;;;;;6286707;22;20023;-87
2022/08/29 08:01:06;;;;;;;4.75;1.40;;;18.90;99.90;;;;;;6284451;22;20165;-88
2022/08/29 08:03:33;;;;;;;3.53;1.17;;;19.00;99.90;;;;;;6254664;22;20471;-91
2022/08/29 08:05:58;;;;;;;7.05;1.45;;;18.90;99.90;;;;;;6254435;22;20015;-95
2022/08/29 08:08:25;;;;;;;4.50;1.27;;;18.90;99.90;;;;;;6254898;22;20058;-95
2022/08/29 08:10:50;;;;;;;;;;;18.90;99.90;;;;;;6255008;22;20030;-89
2022/08/29 08:13:16;;;;;;;4.32;1.42;;;18.90;99.90;;;;;;6254472;22;19919;-90
2022/08/29 08:15:42;;;;;;;3.92;1.20;;;18.90;99.90;;;;;;6254716;22;20513;-88
2022/08/29 08:18:08;;;;;;;6.05;1.27;;;18.90;99.90;;;;;;6230620;22;20106;-89
2022/08/29 08:20:34;;;;;;;3.85;0.98;;;19.00;99.90;;;;;;6256636;22;20033;-89
2022/08/29 08:22:59;;;;;;;3.03;1.10;;;19.00;99.90;;;;;;6282404;22;20467;-96
2022/08/29 08:25:25;;;;;;;4.68;1.70;;;19.00;99.90;;;;;;6281931;22;20027;-90
2022/08/29 08:27:52;;;;;;;3.28;1.25;;;19.00;99.90;;;;;;6282222;22;20034;-89
2022/08/29 08:30:17;;;;;;;;;;;18.90;99.90;;;;;;6257536;22;20026;-95
2022/08/29 08:32:44;;;;;;;3.90;1.40;;;18.90;99.90;;;;;;6256454;22;20328;-91
2022/08/29 08:35:11;;;;;;;3.78;1.13;;;18.90;99.90;;;;;;6257082;22;20539;-89
2022/08/29 08:37:38;;;;;;;6.00;1.50;;;18.90;99.90;;;;;;6310057;22;20011;-89
2022/08/29 08:40:05;;;;;;;5.10;1.73;;;18.90;99.90;;;;;;6255855;22;20016;-92
2022/08/29 08:42:43;;;;;;;5.25;2.13;;;18.90;99.90;;;;;;6206507;22;20023;-90
2022/08/29 08:45:25;;;;;;;4.10;1.50;;;19.00;99.90;;;;;;6257898;22;20046;-95
2022/08/29 08:48:16;;;;;;;3.38;1.40;;;19.00;99.90;;;;;;6282681;22;20023;-89
2022/08/29 08:51:14;;;;;;;3.33;1.40;;;19.10;99.90;;;;;;6256566;22;20047;-95
2022/08/29 08:53:47;;;;;;;4.47;1.40;;;19.10;99.90;;;;;;6191500;22;20100;-91
2022/08/29 08:56:21;;;;;;;4.75;1.20;;;19.10;99.90;;;;;;6256390;22;20056;-92
2022/08/29 08:58:56;;;;;;;4.07;1.50;;;19.10;99.90;;;;;;6256136;22;20016;-94
2022/08/29 09:01:26;;;;;;;2.63;1.15;;;19.10;99.90;;;;;;6256229;22;20026;-90
2022/08/29 09:04:34;;;;;;;4.60;1.20;;;19.10;99.90;;;;;;6281615;22;20023;-89
2022/08/29 09:07:38;;;;;;;4.85;1.92;;;19.10;99.90;;;;;;6256413;22;20018;-94
2022/08/29 09:10:52;;;;;;;3.25;1.23;;;19.10;99.90;;;;;;6281154;22;20146;-94
2022/08/29 09:52:25;;;;;;;4.70;1.52;;;19.80;99.90;;;;;;6307965;22;20030;-92
2022/08/29 09:54:51;;;;;;;5.07;1.42;;;19.90;99.90;;;;;;6257366;22;20019;-95
2022/08/29 09:57:17;;;;;;;4.13;1.30;;;20.00;99.90;;;;;;6255121;22;20020;-95
2022/08/29 09:59:46;;;;;;;3.58;1.08;;;20.00;99.90;;;;;;6256942;22;20024;-91
2022/08/29 10:02:36;;;;;;;5.07;1.90;;;20.10;99.90;;;;;;6257901;22;20019;-95
2022/08/29 10:05:11;;;;;;;5.05;1.30;;;20.10;99.90;;;;;;6258154;22;20058;-90
2022/08/29 10:07:50;;;;;;;3.45;1.23;;;20.10;99.90;;;;;;6281708;22;20574;-94
2022/08/29 10:10:19;;;;;;;4.68;1.35;;;20.20;99.90;;;;;;6283001;22;20023;-90
2022/08/29 10:12:52;;;;;;;3.03;1.38;;;20.10;99.90;;;;;;6277308;22;20011;-89
2022/08/29 10:15:35;;;;;;;2.72;1.20;;;20.10;99.90;;;;;;6278941;22;20019;-88
2022/08/29 10:18:19;;;;;;;4.22;1.45;;;20.10;99.90;;;;;;6258719;22;20159;-93
2022/08/29 10:20:48;;;;;;;4.75;1.13;;;20.20;99.90;;;;;;6257805;22;20024;-93
2022/08/29 10:23:42;;;;;;;4.22;1.10;;;20.30;99.90;;;;;;6256228;22;20322;-91
2022/08/29 10:26:33;;;;;;;3.08;1.30;;;20.30;99.90;;;;;;6255880;22;20020;-91
2022/08/29 10:29:14;;;;;;;2.97;0.90;;;20.40;99.90;;;;;;6255432;22;20019;-91
2022/08/29 10:31:57;;;;;;;2.58;0.98;;;20.40;99.90;;;;;;6280112;22;20023;-88
2022/08/29 10:35:19;;;;;;;3.78;1.00;;;20.40;99.90;;;;;;6255517;22;20023;-92
2022/08/29 10:38:04;;;;;;;4.80;1.40;;;20.40;99.90;;;;;;6279984;22;20302;-95
2022/08/29 10:40:46;;;;;;;2.33;0.98;;;20.50;99.90;;;;;;6255213;22;20011;-95
2022/08/29 10:48:57;;;;;;;5.18;1.13;;;20.60;99.90;;;;;;6306803;22;20030;-91
2022/08/29 10:52:21;;;;;;;5.78;1.40;;;20.60;99.90;;;;;;6269593;22;20019;-92
2022/08/29 10:55:12;;;;;;;3.72;1.10;;;20.60;99.90;;;;;;6252715;22;20015;-91
2022/08/29 10:58:10;;;;;;;3.47;1.33;;;20.50;99.90;;;;;;6255516;22;20019;-94
2022/08/29 11:01:21;;;;;;;3.33;1.15;;;20.50;99.90;;;;;;6255612;22;20457;-94
2022/08/29 11:04:09;;;;;;;2.65;1.00;;;20.50;99.90;;;;;;6255443;22;20341;-96
2022/08/29 11:24:03;;;;;;;3.35;1.25;;;20.40;99.90;;;;;;6306378;22;20080;-94
2022/08/29 11:27:18;;;;;;;4.07;1.33;;;20.30;99.90;;;;;;6279119;22;20024;-95
2022/08/29 11:30:01;;;;;;;3.40;0.75;;;20.40;99.90;;;;;;6254592;22;20062;-96
2022/08/29 11:33:10;;;;;;;2.67;1.02;;;20.50;99.90;;;;;;6253169;22;20444;-93
2022/08/29 11:38:50;;;;;;;2.35;0.90;;;20.60;99.90;;;;;;6279595;22;20027;-93
2022/08/29 11:41:43;;;;;;;3.45;1.25;;;20.60;99.90;;;;;;6253716;22;20057;-94
2022/08/29 11:44:55;;;;;;;4.72;1.17;;;20.60;99.90;;;;;;6280713;22;20023;-95
2022/08/29 11:47:56;;;;;;;3.33;1.00;;;20.60;99.90;;;;;;6254287;22;20019;-94
2022/08/29 11:50:42;;;;;;;6.25;1.50;;;20.60;99.90;;;;;;6279458;22;20102;-94
2022/08/29 11:53:22;;;;;;;3.28;1.10;;;20.70;99.90;;;;;;6254622;22;20023;-92
2022/08/29 11:56:14;;;;;;;3.38;1.50;;;20.60;99.90;;;;;;6255466;22;20015;-94
2022/08/29 11:58:44;;;;;;;2.60;1.00;;;20.60;99.90;;;;;;6255505;22;20085;-92
2022/08/29 12:01:35;;;;;;;2.13;1.00;;;20.60;99.90;;;;;;6280617;22;20023;-95
2022/08/29 12:04:08;;;;;;;3.72;1.17;;;20.60;99.90;;;;;;6255537;22;20019;-91
2022/08/29 12:07:00;;;;;;;2.90;1.08;;;20.60;99.90;;;;;;6255339;22;20035;-92
2022/08/29 12:09:45;;;;;;;2.75;1.10;;;20.70;99.90;;;;;;6255471;22;20072;-96
2022/08/29 12:12:14;;;;;;;2.35;0.95;;;20.70;99.90;;;;;;6255358;22;20023;-96
2022/08/29 12:14:49;;;;;;;2.28;0.90;;;20.70;99.90;;;;;;6255574;22;20016;-95
2022/08/29 12:17:24;;;;;;;3.50;0.95;;;20.70;99.90;;;;;;6281086;22;20058;-95
2022/08/29 12:20:13;;;;;;;4.30;1.10;;;20.80;99.90;;;;;;6255405;22;20019;-93
2022/08/29 12:22:55;;;;;;;3.47;1.00;;;20.70;99.90;;;;;;6255041;22;20019;-94
2022/08/29 12:25:47;;;;;;;2.08;0.80;;;20.70;99.90;;;;;;6232974;22;1119299;-91
2022/08/29 12:28:29;;;;;;;3.67;1.30;;;20.70;99.90;;;;;;6282699;22;20019;-89
2022/08/29 12:30:58;;;;;;;1.83;0.75;;;20.70;99.90;;;;;;6283327;22;20066;-94
2022/08/29 12:33:54;;;;;;;2.70;1.00;;;20.70;99.90;;;;;;6282649;22;20073;-93
2022/08/29 12:40:15;;;;;;;4.57;0.98;;;20.70;99.90;;;;;;6283015;22;20019;-94
2022/08/29 12:43:08;;;;;;;3.20;1.10;;;20.70;99.90;;;;;;6259447;22;20019;-94
2022/08/29 12:45:37;;;;;;;5.10;1.30;;;20.70;99.90;;;;;;6257067;22;20026;-93
2022/08/29 12:48:19;;;;;;;2.78;0.77;;;20.70;99.90;;;;;;6282517;22;20019;-89
2022/08/29 12:51:09;;;;;;;1.92;0.82;;;20.80;99.90;;;;;;6255306;22;20019;-93
2022/08/29 12:53:56;;;;;;;2.20;0.85;;;20.80;99.90;;;;;;6256059;22;20098;-93
2022/08/29 12:56:25;;;;;;;2.30;0.70;;;20.80;99.90;;;;;;6234946;22;20020;-89
2022/08/29 12:58:51;;;;;;;1.80;0.70;;;20.80;99.90;;;;;;6256962;22;20019;-94
2022/08/29 13:01:39;;;;;;;3.90;0.98;;;20.70;99.90;;;;;;6309626;22;20110;-95
2022/08/29 13:04:12;;;;;;;2.08;0.70;;;20.70;99.90;;;;;;6260038;22;20020;-91
2022/08/29 13:06:57;;;;;;;2.58;1.08;;;20.70;99.90;;;;;;6286833;22;20031;-94
2022/08/29 13:09:37;;;;;;;2.03;0.60;;;20.70;99.90;;;;;;6256725;22;20108;-93
2022/08/29 13:12:12;;;;;;;1.85;0.60;;;20.80;99.90;;;;;;6309086;22;20464;-96
2022/08/29 13:15:01;;;;;;;2.72;0.90;;;20.80;99.90;;;;;;6282048;22;20023;-93
2022/08/29 13:17:31;;;;;;;3.20;0.90;;;20.80;99.90;;;;;;6256633;22;20030;-93
2022/08/29 13:20:41;;;;;;;2.38;0.73;;;20.80;99.90;;;;;;6256099;22;20023;-95
2022/08/29 13:23:29;;;;;;;5.22;1.00;;;20.80;99.90;;;;;;6253116;22;20027;-92
2022/08/29 13:26:18;;;;;;;1.88;0.70;;;20.80;99.90;;;;;;6281656;22;20085;-93
2022/08/29 13:29:13;;;;;;;2.13;0.70;;;20.70;99.90;;;;;;6282717;22;20023;-93
2022/08/29 13:31:39;;;;;;;1.45;0.80;;;20.70;99.90;;;;;;6256696;22;20019;-94
2022/08/29 13:34:08;;;;;;;;;;;20.70;99.90;;;;;;6257810;22;20022;-94
2022/08/29 13:36:48;;;;;;;4.15;1.00;;;20.70;99.90;;;;;;6256550;22;19918;-95
2022/08/29 13:39:35;;;;;;;2.60;0.77;;;20.80;99.90;;;;;;6283521;22;20102;-93
2022/08/29 13:42:01;;;;;;;3.47;0.80;;;20.80;99.90;;;;;;6260917;22;20019;-96
2022/08/29 13:44:35;;;;;;;3.92;0.93;;;20.80;99.90;;;;;;6309210;22;20040;-92
2022/08/29 13:47:11;;;;;;;1.40;0.65;;;20.90;99.90;;;;;;6283238;22;20101;-95
2022/08/29 13:49:39;;;;;;;3.53;0.60;;;20.90;99.90;;;;;;6315444;22;20023;-92
2022/08/29 13:52:06;;;;;;;3.33;0.70;;;20.90;99.90;;;;;;6256267;22;20055;-91
2022/08/29 13:54:33;;;;;;;2.28;0.70;;;21.00;99.90;;;;;;6283373;22;20077;-92
2022/08/29 13:57:00;;;;;;;1.92;0.68;;;21.10;99.90;;;;;;6255340;22;20021;-90
2022/08/29 13:59:33;;;;;;;1.83;1.08;;;21.10;99.90;;;;;;6309773;22;20026;-89
2022/08/29 14:01:59;;;;;;;1.77;0.70;;;21.10;99.90;;;;;;6259170;22;20051;-94
2022/08/29 14:04:29;;;;;;;2.95;0.75;;;21.10;99.90;;;;;;6257618;22;20460;-95
2022/08/29 14:06:55;;;;;;;2.05;0.75;;;21.10;99.90;;;;;;6260052;22;20475;-90
2022/08/29 14:09:31;;;;;;;2.85;0.77;;;21.10;99.90;;;;;;6288879;22;20027;-89
2022/08/29 14:12:09;;;;;;;3.13;0.75;;;21.10;99.90;;;;;;6291364;22;20023;-90
2022/08/29 14:14:36;;;;;;;3.75;0.85;;;21.10;99.90;;;;;;6262939;22;20046;-93
2022/08/29 14:17:01;;;;;;;2.63;1.10;;;21.00;99.90;;;;;;6285823;22;20452;-89
2022/08/29 14:19:29;;;;;;;2.75;0.80;;;21.00;99.90;;;;;;6237943;22;20023;-91
2022/08/29 14:22:00;;;;;;;2.70;1.35;;;21.10;99.90;;;;;;6306554;22;20060;-89
2022/08/29 14:24:27;;;;;;;4.03;0.82;;;21.10;99.90;;;;;;6248278;22;20019;-90
2022/08/29 14:26:53;;;;;;;2.63;0.63;;;21.10;99.90;;;;;;6264109;22;20153;-96
2022/08/29 14:29:20;;;;;;;3.47;0.60;;;21.20;99.90;;;;;;6260030;22;20464;-91
2022/08/29 14:31:46;;;;;;;2.45;0.90;;;21.20;99.90;;;;;;6255485;22;20026;-91
2022/08/29 14:42:12;;;;;;;1.40;0.60;;;21.30;99.90;;;;;;6279540;22;20445;-90
2022/08/29 14:44:41;;;;;;;1.88;0.73;;;21.30;99.90;;;;;;6257080;22;20027;-90
2022/08/29 14:47:07;;;;;;;1.17;0.70;;;21.30;99.90;;;;;;6251180;22;20522;-91
2022/08/29 14:49:33;;;;;;;4.38;1.02;;;21.20;99.90;;;;;;6281569;22;20023;-90